sensor_id;sensor_type;location;lat;lon;timestamp;P1;durP1;ratioP1;P2;durP2;ratioP2
48092;SDS011;33873;47.442;18.902;2023-10-13T00:01:57;9.00;;;3.92;;
48092;SDS011;33873;47.442;18.902;2023-10-13T00:04:29;11.38;;;4.10;;
48092;SDS011;33873;47.442;18.902;2023-10-13T00:06:58;8.30;;;5.28;;
48092;SDS011;33873;47.442;18.902;2023-10-13T00:09:30;12.13;;;5.03;;
48092;SDS011;33873;47.442;18.902;2023-10-13T00:12:00;8.32;;;4.60;;
48092;SDS011;33873;47.442;18.902;2023-10-13T00:14:28;12.40;;;5.53;;
48092;SDS011;33873;47.442;18.902;2023-10-13T00:17:05;12.25;;;6.78;;
48092;SDS011;33873;47.442;18.902;2023-10-13T00:19:42;10.27;;;3.65;;
48092;SDS011;33873;47.442;18.902;2023-10-13T00:22:30;8.77;;;4.03;;
48092;SDS011;33873;47.442;18.902;2023-10-13T00:24:58;6.72;;;4.32;;
48092;SDS011;33873;47.442;18.902;2023-10-13T00:27:26;13.15;;;4.75;;
48092;SDS011;33873;47.442;18.902;2023-10-13T00:30:01;13.52;;;5.10;;
48092;SDS011;33873;47.442;18.902;2023-10-13T00:32:50;6.57;;;3.65;;
48092;SDS011;33873;47.442;18.902;2023-10-13T00:35:23;13.88;;;5.40;;
48092;SDS011;33873;47.442;18.902;2023-10-13T00:37:52;8.13;;;4.22;;
48092;SDS011;33873;47.442;18.902;2023-10-13T00:40:23;8.77;;;5.05;;
48092;SDS011;33873;47.442;18.902;2023-10-13T00:43:11;6.07;;;4.07;;
48092;SDS011;33873;47.442;18.902;2023-10-13T00:45:49;6.97;;;3.90;;
48092;SDS011;33873;47.442;18.902;2023-10-13T00:48:25;10.02;;;4.12;;
48092;SDS011;33873;47.442;18.902;2023-10-13T00:51:02;16.30;;;6.22;;
48092;SDS011;33873;47.442;18.902;2023-10-13T00:53:45;10.38;;;6.20;;
48092;SDS011;33873;47.442;18.902;2023-10-13T00:56:15;11.15;;;5.28;;
48092;SDS011;33873;47.442;18.902;2023-10-13T00:58:46;10.25;;;4.93;;
48092;SDS011;33873;47.442;18.902;2023-10-13T01:01:13;13.35;;;4.32;;
48092;SDS011;33873;47.442;18.902;2023-10-13T01:03:50;7.57;;;4.57;;
48092;SDS011;33873;47.442;18.902;2023-10-13T01:06:30;7.20;;;4.00;;
48092;SDS011;33873;47.442;18.902;2023-10-13T01:08:59;7.60;;;4.05;;
48092;SDS011;33873;47.442;18.902;2023-10-13T01:11:41;6.72;;;3.58;;
48092;SDS011;33873;47.442;18.902;2023-10-13T01:14:10;9.27;;;4.60;;
48092;SDS011;33873;47.442;18.902;2023-10-13T01:16:39;12.75;;;5.22;;
48092;SDS011;33873;47.442;18.902;2023-10-13T01:19:13;13.07;;;4.73;;
48092;SDS011;33873;47.442;18.902;2023-10-13T01:21:47;7.93;;;4.45;;
48092;SDS011;33873;47.442;18.902;2023-10-13T01:24:15;11.00;;;5.22;;
48092;SDS011;33873;47.442;18.902;2023-10-13T01:26:51;11.15;;;4.87;;
48092;SDS011;33873;47.442;18.902;2023-10-13T01:29:20;10.40;;;5.07;;
48092;SDS011;33873;47.442;18.902;2023-10-13T01:31:53;14.65;;;4.80;;
48092;SDS011;33873;47.442;18.902;2023-10-13T01:34:21;11.77;;;4.55;;
48092;SDS011;33873;47.442;18.902;2023-10-13T01:36:52;7.65;;;4.07;;
48092;SDS011;33873;47.442;18.902;2023-10-13T01:39:21;12.37;;;5.40;;
48092;SDS011;33873;47.442;18.902;2023-10-13T01:41:56;10.10;;;5.10;;
48092;SDS011;33873;47.442;18.902;2023-10-13T01:44:25;8.35;;;4.00;;
48092;SDS011;33873;47.442;18.902;2023-10-13T01:47:00;10.38;;;4.12;;
48092;SDS011;33873;47.442;18.902;2023-10-13T01:49:35;12.35;;;5.55;;
48092;SDS011;33873;47.442;18.902;2023-10-13T01:52:15;9.50;;;4.57;;
48092;SDS011;33873;47.442;18.902;2023-10-13T01:54:47;9.88;;;5.37;;
48092;SDS011;33873;47.442;18.902;2023-10-13T01:57:18;13.98;;;4.00;;
48092;SDS011;33873;47.442;18.902;2023-10-13T01:59:46;8.15;;;4.57;;
48092;SDS011;33873;47.442;18.902;2023-10-13T02:02:16;8.82;;;4.68;;
48092;SDS011;33873;47.442;18.902;2023-10-13T02:04:57;15.90;;;8.32;;
48092;SDS011;33873;47.442;18.902;2023-10-13T02:07:31;16.80;;;9.02;;
48092;SDS011;33873;47.442;18.902;2023-10-13T02:10:02;6.80;;;4.62;;
48092;SDS011;33873;47.442;18.902;2023-10-13T02:12:33;14.35;;;9.02;;
48092;SDS011;33873;47.442;18.902;2023-10-13T02:15:05;8.88;;;3.85;;
48092;SDS011;33873;47.442;18.902;2023-10-13T02:17:32;15.00;;;3.70;;
48092;SDS011;33873;47.442;18.902;2023-10-13T02:20:09;13.13;;;4.70;;
48092;SDS011;33873;47.442;18.902;2023-10-13T02:22:42;9.40;;;4.95;;
48092;SDS011;33873;47.442;18.902;2023-10-13T02:25:19;10.35;;;4.70;;
48092;SDS011;33873;47.442;18.902;2023-10-13T02:28:13;9.68;;;4.65;;
48092;SDS011;33873;47.442;18.902;2023-10-13T02:30:42;10.07;;;4.72;;
48092;SDS011;33873;47.442;18.902;2023-10-13T02:33:16;15.25;;;7.15;;
48092;SDS011;33873;47.442;18.902;2023-10-13T02:36:00;11.80;;;4.70;;
48092;SDS011;33873;47.442;18.902;2023-10-13T02:41:15;10.38;;;4.57;;
48092;SDS011;33873;47.442;18.902;2023-10-13T02:43:53;13.82;;;4.20;;
48092;SDS011;33873;47.442;18.902;2023-10-13T02:46:22;7.15;;;3.90;;
48092;SDS011;33873;47.442;18.902;2023-10-13T02:48:51;21.83;;;5.05;;
48092;SDS011;33873;47.442;18.902;2023-10-13T02:51:21;8.27;;;5.15;;
48092;SDS011;33873;47.442;18.902;2023-10-13T02:53:55;7.85;;;4.90;;
48092;SDS011;33873;47.442;18.902;2023-10-13T02:56:29;8.38;;;4.15;;
48092;SDS011;33873;47.442;18.902;2023-10-13T02:58:57;10.77;;;5.53;;
48092;SDS011;33873;47.442;18.902;2023-10-13T03:01:24;13.50;;;5.25;;
48092;SDS011;33873;47.442;18.902;2023-10-13T03:03:57;11.93;;;5.68;;
48092;SDS011;33873;47.442;18.902;2023-10-13T03:06:26;8.02;;;4.62;;
48092;SDS011;33873;47.442;18.902;2023-10-13T03:09:02;11.85;;;5.07;;
48092;SDS011;33873;47.442;18.902;2023-10-13T03:11:46;6.75;;;4.05;;
48092;SDS011;33873;47.442;18.902;2023-10-13T03:14:21;17.27;;;8.25;;
48092;SDS011;33873;47.442;18.902;2023-10-13T03:17:07;11.07;;;5.60;;
48092;SDS011;33873;47.442;18.902;2023-10-13T03:19:45;10.52;;;4.55;;
48092;SDS011;33873;47.442;18.902;2023-10-13T03:22:17;11.38;;;5.53;;
48092;SDS011;33873;47.442;18.902;2023-10-13T03:24:46;7.25;;;3.78;;
48092;SDS011;33873;47.442;18.902;2023-10-13T03:27:15;8.98;;;5.07;;
48092;SDS011;33873;47.442;18.902;2023-10-13T03:29:45;11.57;;;5.03;;
48092;SDS011;33873;47.442;18.902;2023-10-13T03:32:22;11.32;;;5.72;;
48092;SDS011;33873;47.442;18.902;2023-10-13T03:34:54;13.00;;;5.47;;
48092;SDS011;33873;47.442;18.902;2023-10-13T03:37:38;15.27;;;5.32;;
48092;SDS011;33873;47.442;18.902;2023-10-13T03:40:07;7.35;;;5.12;;
48092;SDS011;33873;47.442;18.902;2023-10-13T03:42:49;8.45;;;4.80;;
48092;SDS011;33873;47.442;18.902;2023-10-13T03:45:39;11.38;;;5.90;;
48092;SDS011;33873;47.442;18.902;2023-10-13T03:50:52;8.52;;;4.35;;
48092;SDS011;33873;47.442;18.902;2023-10-13T03:53:30;10.20;;;5.47;;
48092;SDS011;33873;47.442;18.902;2023-10-13T03:56:05;9.20;;;4.53;;
48092;SDS011;33873;47.442;18.902;2023-10-13T03:58:39;12.20;;;5.70;;
48092;SDS011;33873;47.442;18.902;2023-10-13T04:01:13;7.90;;;4.75;;
48092;SDS011;33873;47.442;18.902;2023-10-13T04:03:44;13.07;;;4.72;;
48092;SDS011;33873;47.442;18.902;2023-10-13T04:06:24;10.30;;;5.60;;
48092;SDS011;33873;47.442;18.902;2023-10-13T04:09:14;10.57;;;5.25;;
48092;SDS011;33873;47.442;18.902;2023-10-13T04:12:02;13.93;;;5.93;;
48092;SDS011;33873;47.442;18.902;2023-10-13T04:14:35;10.82;;;6.03;;
48092;SDS011;33873;47.442;18.902;2023-10-13T04:17:40;13.85;;;7.72;;
48092;SDS011;33873;47.442;18.902;2023-10-13T04:20:14;13.43;;;6.83;;
48092;SDS011;33873;47.442;18.902;2023-10-13T04:22:54;9.73;;;5.47;;
48092;SDS011;33873;47.442;18.902;2023-10-13T04:25:25;11.57;;;5.78;;
48092;SDS011;33873;47.442;18.902;2023-10-13T04:28:10;10.43;;;4.35;;
48092;SDS011;33873;47.442;18.902;2023-10-13T04:30:46;9.93;;;5.55;;
48092;SDS011;33873;47.442;18.902;2023-10-13T04:33:30;11.40;;;5.90;;
48092;SDS011;33873;47.442;18.902;2023-10-13T04:36:15;8.27;;;5.32;;
48092;SDS011;33873;47.442;18.902;2023-10-13T04:39:03;15.25;;;9.45;;
48092;SDS011;33873;47.442;18.902;2023-10-13T04:41:32;10.20;;;5.18;;
48092;SDS011;33873;47.442;18.902;2023-10-13T04:44:13;10.60;;;5.70;;
48092;SDS011;33873;47.442;18.902;2023-10-13T04:46:58;14.20;;;5.80;;
48092;SDS011;33873;47.442;18.902;2023-10-13T04:49:27;12.60;;;5.25;;
48092;SDS011;33873;47.442;18.902;2023-10-13T04:52:10;15.32;;;5.65;;
48092;SDS011;33873;47.442;18.902;2023-10-13T04:54:39;8.00;;;4.60;;
48092;SDS011;33873;47.442;18.902;2023-10-13T04:57:16;10.00;;;5.45;;
48092;SDS011;33873;47.442;18.902;2023-10-13T04:59:52;7.47;;;4.15;;
48092;SDS011;33873;47.442;18.902;2023-10-13T05:02:40;8.68;;;4.30;;
48092;SDS011;33873;47.442;18.902;2023-10-13T05:05:09;13.00;;;5.60;;
48092;SDS011;33873;47.442;18.902;2023-10-13T05:07:41;5.40;;;3.35;;
48092;SDS011;33873;47.442;18.902;2023-10-13T05:10:28;15.23;;;5.37;;
48092;SDS011;33873;47.442;18.902;2023-10-13T05:13:15;8.35;;;4.85;;
48092;SDS011;33873;47.442;18.902;2023-10-13T05:16:01;9.75;;;5.07;;
48092;SDS011;33873;47.442;18.902;2023-10-13T05:18:48;11.45;;;6.30;;
48092;SDS011;33873;47.442;18.902;2023-10-13T05:21:34;15.93;;;7.28;;
48092;SDS011;33873;47.442;18.902;2023-10-13T05:24:23;13.00;;;6.57;;
48092;SDS011;33873;47.442;18.902;2023-10-13T05:27:10;12.02;;;5.95;;
48092;SDS011;33873;47.442;18.902;2023-10-13T05:29:56;11.93;;;5.57;;
48092;SDS011;33873;47.442;18.902;2023-10-13T05:33:02;9.25;;;4.53;;
48092;SDS011;33873;47.442;18.902;2023-10-13T05:35:48;9.45;;;5.10;;
48092;SDS011;33873;47.442;18.902;2023-10-13T05:38:35;12.00;;;6.20;;
48092;SDS011;33873;47.442;18.902;2023-10-13T05:41:21;7.78;;;5.22;;
48092;SDS011;33873;47.442;18.902;2023-10-13T05:44:08;9.57;;;5.60;;
48092;SDS011;33873;47.442;18.902;2023-10-13T05:46:54;9.00;;;3.72;;
48092;SDS011;33873;47.442;18.902;2023-10-13T05:49:40;11.65;;;5.70;;
48092;SDS011;33873;47.442;18.902;2023-10-13T05:52:17;5.87;;;3.75;;
48092;SDS011;33873;47.442;18.902;2023-10-13T05:55:08;7.12;;;4.12;;
48092;SDS011;33873;47.442;18.902;2023-10-13T05:57:54;9.75;;;5.10;;
48092;SDS011;33873;47.442;18.902;2023-10-13T06:00:41;14.25;;;5.72;;
48092;SDS011;33873;47.442;18.902;2023-10-13T06:03:28;13.13;;;6.30;;
48092;SDS011;33873;47.442;18.902;2023-10-13T06:06:14;11.70;;;6.90;;
48092;SDS011;33873;47.442;18.902;2023-10-13T06:09:00;9.65;;;6.25;;
48092;SDS011;33873;47.442;18.902;2023-10-13T06:11:46;12.25;;;5.22;;
48092;SDS011;33873;47.442;18.902;2023-10-13T06:14:33;12.18;;;5.30;;
48092;SDS011;33873;47.442;18.902;2023-10-13T06:17:19;26.00;;;5.90;;
48092;SDS011;33873;47.442;18.902;2023-10-13T06:20:06;9.68;;;6.07;;
48092;SDS011;33873;47.442;18.902;2023-10-13T06:22:52;11.45;;;6.78;;
48092;SDS011;33873;47.442;18.902;2023-10-13T06:25:38;18.42;;;5.32;;
48092;SDS011;33873;47.442;18.902;2023-10-13T06:28:24;5.50;;;3.33;;
48092;SDS011;33873;47.442;18.902;2023-10-13T06:31:11;13.73;;;5.65;;
48092;SDS011;33873;47.442;18.902;2023-10-13T06:33:49;10.50;;;5.32;;
48092;SDS011;33873;47.442;18.902;2023-10-13T06:36:17;14.75;;;11.00;;
48092;SDS011;33873;47.442;18.902;2023-10-13T06:38:45;13.77;;;6.62;;
48092;SDS011;33873;47.442;18.902;2023-10-13T06:41:23;11.30;;;4.60;;
48092;SDS011;33873;47.442;18.902;2023-10-13T06:44:01;8.75;;;4.90;;
48092;SDS011;33873;47.442;18.902;2023-10-13T06:46:29;10.98;;;5.43;;
48092;SDS011;33873;47.442;18.902;2023-10-13T06:49:01;18.15;;;6.00;;
48092;SDS011;33873;47.442;18.902;2023-10-13T06:51:30;15.27;;;4.93;;
48092;SDS011;33873;47.442;18.902;2023-10-13T06:56:38;14.13;;;6.37;;
48092;SDS011;33873;47.442;18.902;2023-10-13T06:59:09;8.77;;;4.75;;
48092;SDS011;33873;47.442;18.902;2023-10-13T07:01:37;10.75;;;6.00;;
48092;SDS011;33873;47.442;18.902;2023-10-13T07:04:09;17.25;;;6.60;;
48092;SDS011;33873;47.442;18.902;2023-10-13T07:06:44;14.75;;;7.10;;
48092;SDS011;33873;47.442;18.902;2023-10-13T07:09:22;13.80;;;5.90;;
48092;SDS011;33873;47.442;18.902;2023-10-13T07:12:15;10.45;;;5.15;;
48092;SDS011;33873;47.442;18.902;2023-10-13T07:14:47;9.48;;;4.40;;
48092;SDS011;33873;47.442;18.902;2023-10-13T07:17:41;8.68;;;4.72;;
48092;SDS011;33873;47.442;18.902;2023-10-13T07:20:12;12.73;;;6.65;;
48092;SDS011;33873;47.442;18.902;2023-10-13T07:22:43;12.35;;;6.28;;
48092;SDS011;33873;47.442;18.902;2023-10-13T07:25:25;10.93;;;5.68;;
48092;SDS011;33873;47.442;18.902;2023-10-13T07:27:54;12.05;;;5.53;;
48092;SDS011;33873;47.442;18.902;2023-10-13T07:30:25;13.48;;;6.30;;
48092;SDS011;33873;47.442;18.902;2023-10-13T07:32:58;11.57;;;6.80;;
48092;SDS011;33873;47.442;18.902;2023-10-13T07:35:27;9.55;;;5.12;;
48092;SDS011;33873;47.442;18.902;2023-10-13T07:37:58;7.62;;;4.55;;
48092;SDS011;33873;47.442;18.902;2023-10-13T07:40:28;8.27;;;4.35;;
48092;SDS011;33873;47.442;18.902;2023-10-13T07:42:56;12.60;;;6.12;;
48092;SDS011;33873;47.442;18.902;2023-10-13T07:45:37;9.05;;;5.43;;
48092;SDS011;33873;47.442;18.902;2023-10-13T07:48:08;10.40;;;5.75;;
48092;SDS011;33873;47.442;18.902;2023-10-13T07:50:40;8.48;;;5.28;;
48092;SDS011;33873;47.442;18.902;2023-10-13T07:53:07;8.13;;;5.32;;
48092;SDS011;33873;47.442;18.902;2023-10-13T07:55:50;11.50;;;6.50;;
48092;SDS011;33873;47.442;18.902;2023-10-13T07:58:23;10.32;;;5.62;;
48092;SDS011;33873;47.442;18.902;2023-10-13T08:00:54;13.27;;;6.45;;
48092;SDS011;33873;47.442;18.902;2023-10-13T08:03:35;18.12;;;6.22;;
48092;SDS011;33873;47.442;18.902;2023-10-13T08:06:14;16.85;;;6.22;;
48092;SDS011;33873;47.442;18.902;2023-10-13T08:08:47;9.40;;;5.90;;
48092;SDS011;33873;47.442;18.902;2023-10-13T08:11:17;9.85;;;4.55;;
48092;SDS011;33873;47.442;18.902;2023-10-13T08:13:52;12.37;;;5.70;;
48092;SDS011;33873;47.442;18.902;2023-10-13T08:16:39;13.18;;;7.32;;
48092;SDS011;33873;47.442;18.902;2023-10-13T08:19:14;11.15;;;6.62;;
48092;SDS011;33873;47.442;18.902;2023-10-13T08:21:43;14.40;;;6.20;;
48092;SDS011;33873;47.442;18.902;2023-10-13T08:24:16;11.30;;;6.33;;
48092;SDS011;33873;47.442;18.902;2023-10-13T08:26:52;14.98;;;6.75;;
48092;SDS011;33873;47.442;18.902;2023-10-13T08:29:38;16.42;;;7.90;;
48092;SDS011;33873;47.442;18.902;2023-10-13T08:32:24;10.48;;;5.72;;
48092;SDS011;33873;47.442;18.902;2023-10-13T08:34:57;16.05;;;7.90;;
48092;SDS011;33873;47.442;18.902;2023-10-13T08:37:26;19.45;;;6.10;;
48092;SDS011;33873;47.442;18.902;2023-10-13T08:39:58;23.40;;;6.93;;
48092;SDS011;33873;47.442;18.902;2023-10-13T08:42:49;13.80;;;5.87;;
48092;SDS011;33873;47.442;18.902;2023-10-13T08:45:30;13.48;;;5.15;;
48092;SDS011;33873;47.442;18.902;2023-10-13T08:47:59;15.93;;;5.90;;
48092;SDS011;33873;47.442;18.902;2023-10-13T08:50:42;13.85;;;5.85;;
48092;SDS011;33873;47.442;18.902;2023-10-13T08:53:30;15.43;;;5.90;;
48092;SDS011;33873;47.442;18.902;2023-10-13T08:56:00;9.52;;;4.85;;
48092;SDS011;33873;47.442;18.902;2023-10-13T08:59:06;18.33;;;7.53;;
48092;SDS011;33873;47.442;18.902;2023-10-13T09:01:37;10.93;;;6.10;;
48092;SDS011;33873;47.442;18.902;2023-10-13T09:04:08;9.45;;;5.65;;
48092;SDS011;33873;47.442;18.902;2023-10-13T09:09:27;10.15;;;5.87;;
48092;SDS011;33873;47.442;18.902;2023-10-13T09:12:02;12.20;;;5.53;;
48092;SDS011;33873;47.442;18.902;2023-10-13T09:14:37;11.77;;;6.20;;
48092;SDS011;33873;47.442;18.902;2023-10-13T09:17:12;10.25;;;5.57;;
48092;SDS011;33873;47.442;18.902;2023-10-13T09:19:53;15.55;;;8.55;;
48092;SDS011;33873;47.442;18.902;2023-10-13T09:22:27;16.87;;;8.80;;
48092;SDS011;33873;47.442;18.902;2023-10-13T09:25:05;15.73;;;6.07;;
48092;SDS011;33873;47.442;18.902;2023-10-13T09:27:33;12.90;;;6.43;;
48092;SDS011;33873;47.442;18.902;2023-10-13T09:30:05;9.63;;;5.80;;
48092;SDS011;33873;47.442;18.902;2023-10-13T09:32:46;14.52;;;8.63;;
48092;SDS011;33873;47.442;18.902;2023-10-13T09:35:19;19.77;;;10.27;;
48092;SDS011;33873;47.442;18.902;2023-10-13T09:37:53;14.43;;;7.87;;
48092;SDS011;33873;47.442;18.902;2023-10-13T09:40:24;15.25;;;7.60;;
48092;SDS011;33873;47.442;18.902;2023-10-13T09:43:01;16.67;;;7.87;;
48092;SDS011;33873;47.442;18.902;2023-10-13T09:45:35;20.95;;;9.90;;
48092;SDS011;33873;47.442;18.902;2023-10-13T09:48:10;16.60;;;9.48;;
48092;SDS011;33873;47.442;18.902;2023-10-13T09:50:46;22.55;;;12.68;;
48092;SDS011;33873;47.442;18.902;2023-10-13T09:53:16;22.70;;;10.88;;
48092;SDS011;33873;47.442;18.902;2023-10-13T09:55:47;17.50;;;9.60;;
48092;SDS011;33873;47.442;18.902;2023-10-13T09:58:17;19.90;;;8.88;;
48092;SDS011;33873;47.442;18.902;2023-10-13T10:00:51;25.12;;;10.98;;
48092;SDS011;33873;47.442;18.902;2023-10-13T10:03:50;18.50;;;11.63;;
48092;SDS011;33873;47.442;18.902;2023-10-13T10:06:22;21.87;;;11.93;;
48092;SDS011;33873;47.442;18.902;2023-10-13T10:09:05;25.48;;;11.52;;
48092;SDS011;33873;47.442;18.902;2023-10-13T10:14:56;22.42;;;12.70;;
48092;SDS011;33873;47.442;18.902;2023-10-13T10:17:37;22.33;;;12.32;;
48092;SDS011;33873;47.442;18.902;2023-10-13T10:20:07;22.08;;;11.85;;
48092;SDS011;33873;47.442;18.902;2023-10-13T10:22:56;22.65;;;12.00;;
48092;SDS011;33873;47.442;18.902;2023-10-13T10:25:31;19.05;;;10.15;;
48092;SDS011;33873;47.442;18.902;2023-10-13T10:28:04;21.05;;;8.88;;
48092;SDS011;33873;47.442;18.902;2023-10-13T10:30:33;17.35;;;8.95;;
48092;SDS011;33873;47.442;18.902;2023-10-13T10:33:02;14.77;;;9.75;;
48092;SDS011;33873;47.442;18.902;2023-10-13T10:35:36;15.20;;;9.50;;
48092;SDS011;33873;47.442;18.902;2023-10-13T10:40:55;23.77;;;9.93;;
48092;SDS011;33873;47.442;18.902;2023-10-13T10:43:29;14.98;;;7.85;;
48092;SDS011;33873;47.442;18.902;2023-10-13T10:46:10;19.73;;;10.23;;
48092;SDS011;33873;47.442;18.902;2023-10-13T10:48:42;18.50;;;9.35;;
48092;SDS011;33873;47.442;18.902;2023-10-13T10:51:11;19.67;;;7.68;;
48092;SDS011;33873;47.442;18.902;2023-10-13T10:53:49;17.60;;;9.55;;
48092;SDS011;33873;47.442;18.902;2023-10-13T10:56:22;14.63;;;6.85;;
48092;SDS011;33873;47.442;18.902;2023-10-13T10:58:55;19.70;;;9.70;;
48092;SDS011;33873;47.442;18.902;2023-10-13T11:01:25;18.67;;;10.30;;
48092;SDS011;33873;47.442;18.902;2023-10-13T11:04:05;19.00;;;10.18;;
48092;SDS011;33873;47.442;18.902;2023-10-13T11:06:52;18.00;;;9.23;;
48092;SDS011;33873;47.442;18.902;2023-10-13T11:09:33;17.10;;;8.50;;
48092;SDS011;33873;47.442;18.902;2023-10-13T11:14:43;20.05;;;9.98;;
48092;SDS011;33873;47.442;18.902;2023-10-13T11:17:22;17.65;;;7.85;;
48092;SDS011;33873;47.442;18.902;2023-10-13T11:19:54;16.30;;;8.32;;
48092;SDS011;33873;47.442;18.902;2023-10-13T11:22:23;15.25;;;8.93;;
48092;SDS011;33873;47.442;18.902;2023-10-13T11:24:59;23.00;;;10.85;;
48092;SDS011;33873;47.442;18.902;2023-10-13T11:27:37;15.80;;;8.13;;
48092;SDS011;33873;47.442;18.902;2023-10-13T11:30:12;14.70;;;7.00;;
48092;SDS011;33873;47.442;18.902;2023-10-13T11:32:42;11.80;;;6.32;;
48092;SDS011;33873;47.442;18.902;2023-10-13T11:35:10;7.80;;;5.18;;
48092;SDS011;33873;47.442;18.902;2023-10-13T11:37:48;16.30;;;6.03;;
48092;SDS011;33873;47.442;18.902;2023-10-13T11:40:43;14.30;;;5.90;;
48092;SDS011;33873;47.442;18.902;2023-10-13T11:43:11;12.15;;;5.90;;
48092;SDS011;33873;47.442;18.902;2023-10-13T11:45:49;18.48;;;5.62;;
48092;SDS011;33873;47.442;18.902;2023-10-13T11:48:28;12.88;;;6.72;;
48092;SDS011;33873;47.442;18.902;2023-10-13T11:51:04;13.30;;;5.20;;
48092;SDS011;33873;47.442;18.902;2023-10-13T11:53:35;13.60;;;6.32;;
48092;SDS011;33873;47.442;18.902;2023-10-13T11:56:03;11.73;;;4.70;;
48092;SDS011;33873;47.442;18.902;2023-10-13T11:58:36;12.32;;;6.18;;
48092;SDS011;33873;47.442;18.902;2023-10-13T12:01:05;15.38;;;6.50;;
48092;SDS011;33873;47.442;18.902;2023-10-13T12:03:42;13.23;;;5.78;;
48092;SDS011;33873;47.442;18.902;2023-10-13T12:06:29;12.45;;;6.37;;
48092;SDS011;33873;47.442;18.902;2023-10-13T12:11:47;11.38;;;5.28;;
48092;SDS011;33873;47.442;18.902;2023-10-13T12:14:18;13.18;;;5.18;;
48092;SDS011;33873;47.442;18.902;2023-10-13T12:16:54;14.05;;;5.68;;
48092;SDS011;33873;47.442;18.902;2023-10-13T12:19:23;14.38;;;4.87;;
48092;SDS011;33873;47.442;18.902;2023-10-13T12:21:54;12.50;;;4.95;;
48092;SDS011;33873;47.442;18.902;2023-10-13T12:24:23;12.57;;;5.47;;
48092;SDS011;33873;47.442;18.902;2023-10-13T12:27:03;8.82;;;4.37;;
48092;SDS011;33873;47.442;18.902;2023-10-13T12:29:47;19.08;;;4.50;;
48092;SDS011;33873;47.442;18.902;2023-10-13T12:32:15;16.77;;;5.45;;
48092;SDS011;33873;47.442;18.902;2023-10-13T12:34:48;8.65;;;3.95;;
48092;SDS011;33873;47.442;18.902;2023-10-13T12:37:39;14.77;;;5.57;;
48092;SDS011;33873;47.442;18.902;2023-10-13T12:40:18;11.32;;;4.93;;
48092;SDS011;33873;47.442;18.902;2023-10-13T12:43:04;13.00;;;5.28;;
48092;SDS011;33873;47.442;18.902;2023-10-13T12:45:51;10.40;;;4.55;;
48092;SDS011;33873;47.442;18.902;2023-10-13T12:48:38;11.82;;;5.15;;
48092;SDS011;33873;47.442;18.902;2023-10-13T12:51:32;12.40;;;5.15;;
48092;SDS011;33873;47.442;18.902;2023-10-13T12:54:00;17.95;;;5.10;;
48092;SDS011;33873;47.442;18.902;2023-10-13T12:56:50;15.50;;;5.85;;
48092;SDS011;33873;47.442;18.902;2023-10-13T12:59:24;14.17;;;5.33;;
48092;SDS011;33873;47.442;18.902;2023-10-13T13:01:55;13.00;;;5.07;;
48092;SDS011;33873;47.442;18.902;2023-10-13T13:04:23;12.23;;;4.78;;
48092;SDS011;33873;47.442;18.902;2023-10-13T13:06:59;12.35;;;4.82;;
48092;SDS011;33873;47.442;18.902;2023-10-13T13:09:27;13.10;;;5.68;;
48092;SDS011;33873;47.442;18.902;2023-10-13T13:11:54;14.20;;;6.00;;
48092;SDS011;33873;47.442;18.902;2023-10-13T13:14:26;13.93;;;5.95;;
48092;SDS011;33873;47.442;18.902;2023-10-13T13:16:56;14.15;;;5.47;;
48092;SDS011;33873;47.442;18.902;2023-10-13T13:19:33;10.30;;;4.95;;
48092;SDS011;33873;47.442;18.902;2023-10-13T13:22:07;15.47;;;5.13;;
48092;SDS011;33873;47.442;18.902;2023-10-13T13:24:41;15.82;;;5.15;;
48092;SDS011;33873;47.442;18.902;2023-10-13T13:27:13;19.08;;;5.25;;
48092;SDS011;33873;47.442;18.902;2023-10-13T13:29:42;11.38;;;5.20;;
48092;SDS011;33873;47.442;18.902;2023-10-13T13:32:10;13.93;;;6.20;;
48092;SDS011;33873;47.442;18.902;2023-10-13T13:34:52;18.25;;;5.68;;
48092;SDS011;33873;47.442;18.902;2023-10-13T13:37:26;12.50;;;5.40;;
48092;SDS011;33873;47.442;18.902;2023-10-13T13:39:55;8.88;;;4.50;;
48092;SDS011;33873;47.442;18.902;2023-10-13T13:42:23;11.32;;;4.35;;
48092;SDS011;33873;47.442;18.902;2023-10-13T13:44:50;17.37;;;5.82;;
48092;SDS011;33873;47.442;18.902;2023-10-13T13:47:19;12.55;;;4.65;;
48092;SDS011;33873;47.442;18.902;2023-10-13T13:49:46;14.82;;;4.65;;
48092;SDS011;33873;47.442;18.902;2023-10-13T13:52:19;13.18;;;5.00;;
48092;SDS011;33873;47.442;18.902;2023-10-13T13:55:01;13.50;;;4.72;;
48092;SDS011;33873;47.442;18.902;2023-10-13T13:57:32;13.27;;;5.47;;
48092;SDS011;33873;47.442;18.902;2023-10-13T14:00:02;13.07;;;5.20;;
48092;SDS011;33873;47.442;18.902;2023-10-13T14:02:35;18.87;;;5.35;;
48092;SDS011;33873;47.442;18.902;2023-10-13T14:05:04;9.93;;;4.40;;
48092;SDS011;33873;47.442;18.902;2023-10-13T14:07:31;18.02;;;4.40;;
48092;SDS011;33873;47.442;18.902;2023-10-13T14:10:00;13.55;;;5.80;;
48092;SDS011;33873;47.442;18.902;2023-10-13T14:12:34;11.30;;;5.47;;
48092;SDS011;33873;47.442;18.902;2023-10-13T14:15:09;12.63;;;4.97;;
48092;SDS011;33873;47.442;18.902;2023-10-13T14:17:47;11.50;;;4.37;;
48092;SDS011;33873;47.442;18.902;2023-10-13T14:20:16;8.40;;;4.20;;
48092;SDS011;33873;47.442;18.902;2023-10-13T14:22:48;15.00;;;4.87;;
48092;SDS011;33873;47.442;18.902;2023-10-13T14:25:16;14.25;;;4.75;;
48092;SDS011;33873;47.442;18.902;2023-10-13T14:27:45;12.63;;;5.37;;
48092;SDS011;33873;47.442;18.902;2023-10-13T14:30:13;11.12;;;4.40;;
48092;SDS011;33873;47.442;18.902;2023-10-13T14:32:47;11.07;;;4.80;;
48092;SDS011;33873;47.442;18.902;2023-10-13T14:35:15;12.80;;;4.95;;
48092;SDS011;33873;47.442;18.902;2023-10-13T14:37:43;12.30;;;4.53;;
48092;SDS011;33873;47.442;18.902;2023-10-13T14:40:11;13.43;;;5.03;;
48092;SDS011;33873;47.442;18.902;2023-10-13T14:42:40;13.40;;;5.72;;
48092;SDS011;33873;47.442;18.902;2023-10-13T14:45:08;13.57;;;5.45;;
48092;SDS011;33873;47.442;18.902;2023-10-13T14:47:44;11.52;;;4.80;;
48092;SDS011;33873;47.442;18.902;2023-10-13T14:50:12;8.68;;;4.43;;
48092;SDS011;33873;47.442;18.902;2023-10-13T14:52:49;18.50;;;5.65;;
48092;SDS011;33873;47.442;18.902;2023-10-13T14:55:17;15.52;;;5.00;;
48092;SDS011;33873;47.442;18.902;2023-10-13T14:57:49;12.15;;;4.97;;
48092;SDS011;33873;47.442;18.902;2023-10-13T15:00:20;12.45;;;5.25;;
48092;SDS011;33873;47.442;18.902;2023-10-13T15:02:53;14.70;;;5.00;;
48092;SDS011;33873;47.442;18.902;2023-10-13T15:05:22;10.57;;;4.72;;
48092;SDS011;33873;47.442;18.902;2023-10-13T15:07:50;13.00;;;4.90;;
48092;SDS011;33873;47.442;18.902;2023-10-13T15:10:18;14.18;;;5.93;;
48092;SDS011;33873;47.442;18.902;2023-10-13T15:12:46;15.27;;;5.35;;
48092;SDS011;33873;47.442;18.902;2023-10-13T15:15:16;14.00;;;5.47;;
48092;SDS011;33873;47.442;18.902;2023-10-13T15:17:43;12.50;;;5.53;;
48092;SDS011;33873;47.442;18.902;2023-10-13T15:20:11;16.02;;;5.37;;
48092;SDS011;33873;47.442;18.902;2023-10-13T15:22:45;13.27;;;7.07;;
48092;SDS011;33873;47.442;18.902;2023-10-13T15:25:17;17.58;;;9.77;;
48092;SDS011;33873;47.442;18.902;2023-10-13T15:27:48;13.93;;;8.52;;
48092;SDS011;33873;47.442;18.902;2023-10-13T15:30:25;13.35;;;7.43;;
48092;SDS011;33873;47.442;18.902;2023-10-13T15:32:58;12.63;;;6.37;;
48092;SDS011;33873;47.442;18.902;2023-10-13T15:35:28;19.08;;;7.18;;